sensor_id;sensor_type;location;lat;lon;timestamp;P1;durP1;ratioP1;P2;durP2;ratioP2
30301;SDS011;17111;52.130;5.028;2023-02-20T00:00:08;10.32;;;6.28;;
30301;SDS011;17111;52.130;5.028;2023-02-20T00:02:41;9.45;;;5.68;;
30301;SDS011;17111;52.130;5.028;2023-02-20T00:05:08;13.15;;;6.75;;
30301;SDS011;17111;52.130;5.028;2023-02-20T00:07:37;10.35;;;6.35;;
30301;SDS011;17111;52.130;5.028;2023-02-20T00:10:03;9.23;;;5.70;;
30301;SDS011;17111;52.130;5.028;2023-02-20T00:12:30;11.20;;;6.18;;
30301;SDS011;17111;52.130;5.028;2023-02-20T00:14:58;10.48;;;5.78;;
30301;SDS011;17111;52.130;5.028;2023-02-20T00:17:24;8.68;;;5.72;;
30301;SDS011;17111;52.130;5.028;2023-02-20T00:19:51;9.02;;;5.30;;
30301;SDS011;17111;52.130;5.028;2023-02-20T00:22:17;9.98;;;5.57;;
30301;SDS011;17111;52.130;5.028;2023-02-20T00:24:47;10.55;;;5.47;;
30301;SDS011;17111;52.130;5.028;2023-02-20T00:27:14;9.30;;;5.80;;
30301;SDS011;17111;52.130;5.028;2023-02-20T00:29:41;9.27;;;6.10;;
30301;SDS011;17111;52.130;5.028;2023-02-20T00:32:09;9.27;;;5.22;;
30301;SDS011;17111;52.130;5.028;2023-02-20T00:34:36;8.18;;;5.60;;
30301;SDS011;17111;52.130;5.028;2023-02-20T00:37:03;11.60;;;5.30;;
30301;SDS011;17111;52.130;5.028;2023-02-20T00:39:32;9.88;;;5.35;;
30301;SDS011;17111;52.130;5.028;2023-02-20T00:41:59;9.32;;;4.72;;
30301;SDS011;17111;52.130;5.028;2023-02-20T00:44:25;8.35;;;5.05;;
30301;SDS011;17111;52.130;5.028;2023-02-20T00:46:52;9.43;;;4.65;;
30301;SDS011;17111;52.130;5.028;2023-02-20T00:49:19;9.98;;;5.03;;
30301;SDS011;17111;52.130;5.028;2023-02-20T00:51:45;9.20;;;5.45;;
30301;SDS011;17111;52.130;5.028;2023-02-20T00:54:12;9.77;;;5.03;;
30301;SDS011;17111;52.130;5.028;2023-02-20T00:56:38;7.57;;;4.85;;
30301;SDS011;17111;52.130;5.028;2023-02-20T00:59:05;7.45;;;4.95;;
30301;SDS011;17111;52.130;5.028;2023-02-20T01:01:32;7.93;;;4.78;;
30301;SDS011;17111;52.130;5.028;2023-02-20T01:03:59;7.20;;;4.63;;
30301;SDS011;17111;52.130;5.028;2023-02-20T01:06:25;6.93;;;4.60;;
30301;SDS011;17111;52.130;5.028;2023-02-20T01:08:52;8.77;;;4.90;;
30301;SDS011;17111;52.130;5.028;2023-02-20T01:11:18;8.73;;;4.80;;
30301;SDS011;17111;52.130;5.028;2023-02-20T01:13:45;7.88;;;5.05;;
30301;SDS011;17111;52.130;5.028;2023-02-20T01:16:12;13.85;;;4.95;;
30301;SDS011;17111;52.130;5.028;2023-02-20T01:18:39;7.80;;;4.80;;
30301;SDS011;17111;52.130;5.028;2023-02-20T01:21:05;8.07;;;4.90;;
30301;SDS011;17111;52.130;5.028;2023-02-20T01:23:32;8.18;;;4.85;;
30301;SDS011;17111;52.130;5.028;2023-02-20T01:25:58;9.40;;;4.70;;
30301;SDS011;17111;52.130;5.028;2023-02-20T01:28:25;8.27;;;5.15;;
30301;SDS011;17111;52.130;5.028;2023-02-20T01:30:51;8.00;;;5.03;;
30301;SDS011;17111;52.130;5.028;2023-02-20T01:33:18;9.88;;;4.05;;
30301;SDS011;17111;52.130;5.028;2023-02-20T01:35:44;8.43;;;4.13;;
30301;SDS011;17111;52.130;5.028;2023-02-20T01:38:11;10.90;;;4.65;;
30301;SDS011;17111;52.130;5.028;2023-02-20T01:40:38;7.70;;;4.00;;
30301;SDS011;17111;52.130;5.028;2023-02-20T01:43:04;8.70;;;4.28;;
30301;SDS011;17111;52.130;5.028;2023-02-20T01:45:32;6.85;;;4.00;;
30301;SDS011;17111;52.130;5.028;2023-02-20T01:48:02;8.15;;;4.45;;
30301;SDS011;17111;52.130;5.028;2023-02-20T01:50:41;7.20;;;4.32;;
30301;SDS011;17111;52.130;5.028;2023-02-20T01:53:10;7.68;;;4.35;;
30301;SDS011;17111;52.130;5.028;2023-02-20T01:55:57;8.88;;;4.35;;
30301;SDS011;17111;52.130;5.028;2023-02-20T01:58:30;7.07;;;4.38;;
30301;SDS011;17111;52.130;5.028;2023-02-20T02:01:02;9.48;;;4.70;;
30301;SDS011;17111;52.130;5.028;2023-02-20T02:03:32;6.60;;;3.97;;
30301;SDS011;17111;52.130;5.028;2023-02-20T02:06:03;6.15;;;3.90;;
30301;SDS011;17111;52.130;5.028;2023-02-20T02:08:35;8.65;;;4.45;;
30301;SDS011;17111;52.130;5.028;2023-02-20T02:11:10;10.18;;;4.40;;
30301;SDS011;17111;52.130;5.028;2023-02-20T02:13:41;7.32;;;4.30;;
30301;SDS011;17111;52.130;5.028;2023-02-20T02:19:14;6.45;;;4.60;;
30301;SDS011;17111;52.130;5.028;2023-02-20T02:22:19;9.63;;;4.28;;
30301;SDS011;17111;52.130;5.028;2023-02-20T02:39:10;6.82;;;4.25;;
30301;SDS011;17111;52.130;5.028;2023-02-20T02:44:42;9.90;;;4.72;;
30301;SDS011;17111;52.130;5.028;2023-02-20T02:47:32;9.80;;;5.20;;
30301;SDS011;17111;52.130;5.028;2023-02-20T02:50:28;10.10;;;4.97;;
30301;SDS011;17111;52.130;5.028;2023-02-20T02:52:59;10.13;;;5.85;;
30301;SDS011;17111;52.130;5.028;2023-02-20T02:55:28;8.60;;;5.30;;
30301;SDS011;17111;52.130;5.028;2023-02-20T02:57:56;9.50;;;5.22;;
30301;SDS011;17111;52.130;5.028;2023-02-20T03:00:33;8.65;;;5.25;;
30301;SDS011;17111;52.130;5.028;2023-02-20T03:03:15;8.93;;;5.53;;
30301;SDS011;17111;52.130;5.028;2023-02-20T03:08:22;9.40;;;4.50;;
30301;SDS011;17111;52.130;5.028;2023-02-20T03:10:59;8.38;;;5.10;;
30301;SDS011;17111;52.130;5.028;2023-02-20T03:13:32;10.02;;;5.38;;
30301;SDS011;17111;52.130;5.028;2023-02-20T03:16:30;10.27;;;5.35;;
30301;SDS011;17111;52.130;5.028;2023-02-20T03:19:06;11.82;;;5.35;;
30301;SDS011;17111;52.130;5.028;2023-02-20T03:21:43;13.15;;;5.75;;
30301;SDS011;17111;52.130;5.028;2023-02-20T03:24:13;8.32;;;5.07;;
30301;SDS011;17111;52.130;5.028;2023-02-20T03:26:44;5.90;;;4.28;;
30301;SDS011;17111;52.130;5.028;2023-02-20T03:29:13;8.48;;;4.75;;
30301;SDS011;17111;52.130;5.028;2023-02-20T03:31:50;9.38;;;4.97;;
30301;SDS011;17111;52.130;5.028;2023-02-20T03:34:39;9.88;;;5.00;;
30301;SDS011;17111;52.130;5.028;2023-02-20T03:37:24;8.52;;;4.45;;
30301;SDS011;17111;52.130;5.028;2023-02-20T03:40:14;8.07;;;4.63;;
30301;SDS011;17111;52.130;5.028;2023-02-20T03:43:03;8.80;;;4.88;;
30301;SDS011;17111;52.130;5.028;2023-02-20T03:46:01;6.70;;;4.18;;
30301;SDS011;17111;52.130;5.028;2023-02-20T03:48:37;13.25;;;4.95;;
30301;SDS011;17111;52.130;5.028;2023-02-20T03:51:10;9.88;;;4.97;;
30301;SDS011;17111;52.130;5.028;2023-02-20T03:53:40;7.85;;;4.95;;
30301;SDS011;17111;52.130;5.028;2023-02-20T03:56:11;9.38;;;4.75;;
30301;SDS011;17111;52.130;5.028;2023-02-20T03:58:43;10.13;;;5.18;;
30301;SDS011;17111;52.130;5.028;2023-02-20T04:01:14;7.43;;;4.75;;
30301;SDS011;17111;52.130;5.028;2023-02-20T04:03:44;8.70;;;5.45;;
30301;SDS011;17111;52.130;5.028;2023-02-20T04:06:13;6.53;;;4.40;;
30301;SDS011;17111;52.130;5.028;2023-02-20T04:08:48;11.80;;;5.10;;
30301;SDS011;17111;52.130;5.028;2023-02-20T04:11:25;10.70;;;4.93;;
30301;SDS011;17111;52.130;5.028;2023-02-20T04:13:57;10.75;;;4.97;;
30301;SDS011;17111;52.130;5.028;2023-02-20T04:16:26;10.32;;;5.60;;
30301;SDS011;17111;52.130;5.028;2023-02-20T04:18:53;8.93;;;4.82;;
30301;SDS011;17111;52.130;5.028;2023-02-20T04:21:21;11.50;;;4.88;;
30301;SDS011;17111;52.130;5.028;2023-02-20T04:23:56;10.27;;;5.68;;
30301;SDS011;17111;52.130;5.028;2023-02-20T04:26:30;8.48;;;4.63;;
30301;SDS011;17111;52.130;5.028;2023-02-20T04:28:58;10.82;;;5.25;;
30301;SDS011;17111;52.130;5.028;2023-02-20T04:31:24;8.98;;;4.70;;
30301;SDS011;17111;52.130;5.028;2023-02-20T04:33:52;6.57;;;4.05;;
30301;SDS011;17111;52.130;5.028;2023-02-20T04:36:18;11.65;;;4.88;;
30301;SDS011;17111;52.130;5.028;2023-02-20T04:38:45;7.05;;;4.40;;
30301;SDS011;17111;52.130;5.028;2023-02-20T04:41:12;9.07;;;4.47;;
30301;SDS011;17111;52.130;5.028;2023-02-20T04:43:38;7.05;;;4.45;;
30301;SDS011;17111;52.130;5.028;2023-02-20T04:46:05;8.52;;;4.82;;
30301;SDS011;17111;52.130;5.028;2023-02-20T04:48:32;8.27;;;4.55;;
30301;SDS011;17111;52.130;5.028;2023-02-20T04:50:58;7.95;;;4.13;;
30301;SDS011;17111;52.130;5.028;2023-02-20T04:53:28;6.60;;;3.92;;
30301;SDS011;17111;52.130;5.028;2023-02-20T04:55:54;7.45;;;4.05;;
30301;SDS011;17111;52.130;5.028;2023-02-20T04:58:21;7.00;;;3.95;;
30301;SDS011;17111;52.130;5.028;2023-02-20T05:00:47;8.65;;;4.25;;
30301;SDS011;17111;52.130;5.028;2023-02-20T05:03:14;7.03;;;4.40;;
30301;SDS011;17111;52.130;5.028;2023-02-20T05:05:40;11.13;;;4.15;;
30301;SDS011;17111;52.130;5.028;2023-02-20T05:08:07;8.57;;;4.75;;
30301;SDS011;17111;52.130;5.028;2023-02-20T05:10:34;10.38;;;4.10;;
30301;SDS011;17111;52.130;5.028;2023-02-20T05:13:03;9.45;;;4.13;;
30301;SDS011;17111;52.130;5.028;2023-02-20T05:15:30;10.70;;;3.97;;
30301;SDS011;17111;52.130;5.028;2023-02-20T05:17:57;10.80;;;5.00;;
30301;SDS011;17111;52.130;5.028;2023-02-20T05:20:24;10.48;;;4.93;;
30301;SDS011;17111;52.130;5.028;2023-02-20T05:23:10;11.52;;;5.47;;
30301;SDS011;17111;52.130;5.028;2023-02-20T05:25:37;9.70;;;5.60;;
30301;SDS011;17111;52.130;5.028;2023-02-20T05:28:03;16.58;;;5.90;;
30301;SDS011;17111;52.130;5.028;2023-02-20T05:30:30;13.10;;;6.18;;
30301;SDS011;17111;52.130;5.028;2023-02-20T05:32:57;11.77;;;6.18;;
30301;SDS011;17111;52.130;5.028;2023-02-20T05:35:23;14.68;;;6.97;;
30301;SDS011;17111;52.130;5.028;2023-02-20T05:37:50;12.82;;;6.82;;
30301;SDS011;17111;52.130;5.028;2023-02-20T05:40:16;16.25;;;7.43;;
30301;SDS011;17111;52.130;5.028;2023-02-20T05:42:43;17.48;;;7.78;;
30301;SDS011;17111;52.130;5.028;2023-02-20T05:45:09;16.42;;;8.02;;
30301;SDS011;17111;52.130;5.028;2023-02-20T05:47:36;15.50;;;7.85;;
30301;SDS011;17111;52.130;5.028;2023-02-20T05:50:04;14.73;;;7.57;;
30301;SDS011;17111;52.130;5.028;2023-02-20T05:52:30;17.25;;;8.50;;
30301;SDS011;17111;52.130;5.028;2023-02-20T05:54:57;19.27;;;8.43;;
30301;SDS011;17111;52.130;5.028;2023-02-20T05:57:24;19.90;;;9.80;;
30301;SDS011;17111;52.130;5.028;2023-02-20T05:59:50;17.30;;;8.25;;
30301;SDS011;17111;52.130;5.028;2023-02-20T06:02:17;16.60;;;8.45;;
30301;SDS011;17111;52.130;5.028;2023-02-20T06:04:43;14.77;;;8.65;;
30301;SDS011;17111;52.130;5.028;2023-02-20T06:07:10;18.92;;;9.23;;
30301;SDS011;17111;52.130;5.028;2023-02-20T06:09:36;18.15;;;8.68;;
30301;SDS011;17111;52.130;5.028;2023-02-20T06:12:07;20.60;;;8.98;;
30301;SDS011;17111;52.130;5.028;2023-02-20T06:14:33;17.75;;;9.30;;
30301;SDS011;17111;52.130;5.028;2023-02-20T06:17:00;18.08;;;8.98;;
30301;SDS011;17111;52.130;5.028;2023-02-20T06:19:26;18.38;;;9.40;;
30301;SDS011;17111;52.130;5.028;2023-02-20T06:21:53;18.77;;;10.02;;
30301;SDS011;17111;52.130;5.028;2023-02-20T06:24:20;19.15;;;9.10;;
30301;SDS011;17111;52.130;5.028;2023-02-20T06:26:47;21.27;;;10.70;;
30301;SDS011;17111;52.130;5.028;2023-02-20T06:29:14;18.25;;;9.18;;
30301;SDS011;17111;52.130;5.028;2023-02-20T06:31:42;16.67;;;9.32;;
30301;SDS011;17111;52.130;5.028;2023-02-20T06:34:09;16.65;;;9.32;;
30301;SDS011;17111;52.130;5.028;2023-02-20T06:36:37;19.73;;;9.90;;
30301;SDS011;17111;52.130;5.028;2023-02-20T06:39:05;17.67;;;8.90;;
30301;SDS011;17111;52.130;5.028;2023-02-20T06:41:33;17.50;;;9.57;;
30301;SDS011;17111;52.130;5.028;2023-02-20T06:43:59;15.73;;;8.90;;
30301;SDS011;17111;52.130;5.028;2023-02-20T06:46:26;17.85;;;9.27;;
30301;SDS011;17111;52.130;5.028;2023-02-20T06:48:54;16.02;;;8.27;;
30301;SDS011;17111;52.130;5.028;2023-02-20T06:51:24;18.88;;;9.30;;
30301;SDS011;17111;52.130;5.028;2023-02-20T06:53:52;17.20;;;8.77;;
30301;SDS011;17111;52.130;5.028;2023-02-20T06:56:20;14.70;;;8.50;;
30301;SDS011;17111;52.130;5.028;2023-02-20T06:58:49;17.23;;;8.98;;
30301;SDS011;17111;52.130;5.028;2023-02-20T07:01:17;17.20;;;8.35;;
30301;SDS011;17111;52.130;5.028;2023-02-20T07:03:46;14.23;;;7.75;;
30301;SDS011;17111;52.130;5.028;2023-02-20T07:06:16;17.38;;;8.68;;
30301;SDS011;17111;52.130;5.028;2023-02-20T07:08:43;15.95;;;7.80;;
30301;SDS011;17111;52.130;5.028;2023-02-20T07:11:10;15.10;;;7.93;;
30301;SDS011;17111;52.130;5.028;2023-02-20T07:13:37;13.82;;;7.72;;
30301;SDS011;17111;52.130;5.028;2023-02-20T07:16:03;14.80;;;7.70;;
30301;SDS011;17111;52.130;5.028;2023-02-20T07:18:30;15.60;;;8.23;;
30301;SDS011;17111;52.130;5.028;2023-02-20T07:20:57;14.73;;;7.65;;
30301;SDS011;17111;52.130;5.028;2023-02-20T07:23:23;14.43;;;7.40;;
30301;SDS011;17111;52.130;5.028;2023-02-20T07:25:50;15.07;;;8.10;;
30301;SDS011;17111;52.130;5.028;2023-02-20T07:28:17;14.00;;;7.43;;
30301;SDS011;17111;52.130;5.028;2023-02-20T07:30:45;14.45;;;6.75;;
30301;SDS011;17111;52.130;5.028;2023-02-20T07:33:14;14.10;;;7.20;;
30301;SDS011;17111;52.130;5.028;2023-02-20T07:35:42;12.02;;;6.70;;
30301;SDS011;17111;52.130;5.028;2023-02-20T07:38:09;14.27;;;6.95;;
30301;SDS011;17111;52.130;5.028;2023-02-20T07:40:36;11.25;;;6.38;;
30301;SDS011;17111;52.130;5.028;2023-02-20T07:43:05;13.63;;;6.47;;
30301;SDS011;17111;52.130;5.028;2023-02-20T07:45:32;14.45;;;6.63;;
30301;SDS011;17111;52.130;5.028;2023-02-20T07:47:59;14.98;;;6.50;;
30301;SDS011;17111;52.130;5.028;2023-02-20T07:50:25;11.93;;;6.38;;
30301;SDS011;17111;52.130;5.028;2023-02-20T07:52:52;10.45;;;6.47;;
30301;SDS011;17111;52.130;5.028;2023-02-20T07:55:18;11.52;;;6.40;;
30301;SDS011;17111;52.130;5.028;2023-02-20T07:57:46;11.80;;;6.25;;
30301;SDS011;17111;52.130;5.028;2023-02-20T08:00:15;10.55;;;5.78;;
30301;SDS011;17111;52.130;5.028;2023-02-20T08:02:43;9.82;;;5.25;;
30301;SDS011;17111;52.130;5.028;2023-02-20T08:05:10;13.38;;;5.85;;
30301;SDS011;17111;52.130;5.028;2023-02-20T08:07:37;11.80;;;6.32;;
30301;SDS011;17111;52.130;5.028;2023-02-20T08:10:04;13.63;;;6.18;;
30301;SDS011;17111;52.130;5.028;2023-02-20T08:12:31;11.07;;;5.50;;
30301;SDS011;17111;52.130;5.028;2023-02-20T08:14:57;9.73;;;5.20;;
30301;SDS011;17111;52.130;5.028;2023-02-20T08:17:24;11.00;;;5.28;;
30301;SDS011;17111;52.130;5.028;2023-02-20T08:20:02;12.00;;;5.30;;
30301;SDS011;17111;52.130;5.028;2023-02-20T08:22:29;12.38;;;5.80;;
30301;SDS011;17111;52.130;5.028;2023-02-20T08:25:06;12.00;;;5.15;;
30301;SDS011;17111;52.130;5.028;2023-02-20T08:27:33;10.90;;;5.47;;
30301;SDS011;17111;52.130;5.028;2023-02-20T08:30:06;12.40;;;5.55;;
30301;SDS011;17111;52.130;5.028;2023-02-20T08:32:33;14.25;;;5.05;;
30301;SDS011;17111;52.130;5.028;2023-02-20T08:35:00;11.35;;;5.03;;
30301;SDS011;17111;52.130;5.028;2023-02-20T08:37:27;10.73;;;5.15;;
30301;SDS011;17111;52.130;5.028;2023-02-20T08:39:54;11.60;;;4.68;;
30301;SDS011;17111;52.130;5.028;2023-02-20T08:42:20;11.18;;;4.57;;
30301;SDS011;17111;52.130;5.028;2023-02-20T08:44:47;10.02;;;4.82;;
30301;SDS011;17111;52.130;5.028;2023-02-20T08:47:13;9.65;;;4.40;;
30301;SDS011;17111;52.130;5.028;2023-02-20T08:49:40;9.65;;;5.05;;
30301;SDS011;17111;52.130;5.028;2023-02-20T08:52:06;11.65;;;4.20;;
30301;SDS011;17111;52.130;5.028;2023-02-20T08:54:33;10.93;;;4.65;;
30301;SDS011;17111;52.130;5.028;2023-02-20T08:57:00;9.93;;;4.38;;
30301;SDS011;17111;52.130;5.028;2023-02-20T08:59:29;12.25;;;4.25;;
30301;SDS011;17111;52.130;5.028;2023-02-20T09:01:57;10.15;;;3.83;;
30301;SDS011;17111;52.130;5.028;2023-02-20T09:04:23;8.48;;;3.83;;
30301;SDS011;17111;52.130;5.028;2023-02-20T09:06:50;8.85;;;4.35;;
30301;SDS011;17111;52.130;5.028;2023-02-20T09:09:16;11.60;;;3.85;;
30301;SDS011;17111;52.130;5.028;2023-02-20T09:11:43;8.20;;;4.03;;
30301;SDS011;17111;52.130;5.028;2023-02-20T09:14:10;9.77;;;5.03;;
30301;SDS011;17111;52.130;5.028;2023-02-20T09:16:37;7.63;;;3.63;;
30301;SDS011;17111;52.130;5.028;2023-02-20T09:19:07;10.10;;;3.92;;
30301;SDS011;17111;52.130;5.028;2023-02-20T09:21:35;7.63;;;3.30;;
30301;SDS011;17111;52.130;5.028;2023-02-20T09:24:01;14.18;;;4.20;;
30301;SDS011;17111;52.130;5.028;2023-02-20T09:26:30;12.07;;;3.70;;
30301;SDS011;17111;52.130;5.028;2023-02-20T09:28:57;19.15;;;4.07;;
30301;SDS011;17111;52.130;5.028;2023-02-20T09:31:23;18.27;;;3.67;;
30301;SDS011;17111;52.130;5.028;2023-02-20T09:33:50;17.58;;;4.28;;
30301;SDS011;17111;52.130;5.028;2023-02-20T09:36:17;18.90;;;4.10;;
30301;SDS011;17111;52.130;5.028;2023-02-20T09:38:43;16.85;;;4.32;;
30301;SDS011;17111;52.130;5.028;2023-02-20T09:41:34;14.32;;;3.88;;
30301;SDS011;17111;52.130;5.028;2023-02-20T09:44:21;12.15;;;3.90;;
30301;SDS011;17111;52.130;5.028;2023-02-20T09:46:58;11.90;;;3.92;;
30301;SDS011;17111;52.130;5.028;2023-02-20T09:49:43;14.63;;;4.40;;
30301;SDS011;17111;52.130;5.028;2023-02-20T09:52:11;19.13;;;4.78;;
30301;SDS011;17111;52.130;5.028;2023-02-20T09:54:42;13.32;;;4.72;;
30301;SDS011;17111;52.130;5.028;2023-02-20T09:57:18;10.50;;;3.75;;
30301;SDS011;17111;52.130;5.028;2023-02-20T09:59:50;16.00;;;3.90;;
30301;SDS011;17111;52.130;5.028;2023-02-20T10:02:30;12.10;;;4.40;;
30301;SDS011;17111;52.130;5.028;2023-02-20T10:05:03;11.60;;;3.53;;
30301;SDS011;17111;52.130;5.028;2023-02-20T10:07:34;15.27;;;3.88;;
30301;SDS011;17111;52.130;5.028;2023-02-20T10:13:09;11.27;;;4.13;;
30301;SDS011;17111;52.130;5.028;2023-02-20T10:15:56;15.10;;;3.75;;
30301;SDS011;17111;52.130;5.028;2023-02-20T10:18:55;12.50;;;4.05;;
30301;SDS011;17111;52.130;5.028;2023-02-20T10:26:53;15.63;;;4.70;;
30301;SDS011;17111;52.130;5.028;2023-02-20T10:29:28;25.25;;;4.57;;
30301;SDS011;17111;52.130;5.028;2023-02-20T10:32:04;21.98;;;5.28;;
30301;SDS011;17111;52.130;5.028;2023-02-20T10:34:37;22.90;;;5.90;;
30301;SDS011;17111;52.130;5.028;2023-02-20T10:37:11;20.13;;;5.70;;
30301;SDS011;17111;52.130;5.028;2023-02-20T10:39:45;13.93;;;5.03;;
30301;SDS011;17111;52.130;5.028;2023-02-20T10:42:22;29.52;;;5.97;;
30301;SDS011;17111;52.130;5.028;2023-02-20T10:45:07;17.13;;;5.20;;
30301;SDS011;17111;52.130;5.028;2023-02-20T10:47:46;21.10;;;5.40;;
30301;SDS011;17111;52.130;5.028;2023-02-20T10:53:20;18.67;;;4.78;;
30301;SDS011;17111;52.130;5.028;2023-02-20T10:56:05;15.88;;;4.63;;
30301;SDS011;17111;52.130;5.028;2023-02-20T11:01:57;23.25;;;4.88;;
30301;SDS011;17111;52.130;5.028;2023-02-20T11:04:27;19.02;;;4.20;;
30301;SDS011;17111;52.130;5.028;2023-02-20T11:07:07;17.58;;;4.63;;
30301;SDS011;17111;52.130;5.028;2023-02-20T11:09:37;12.63;;;4.43;;
30301;SDS011;17111;52.130;5.028;2023-02-20T11:12:05;12.63;;;4.28;;
30301;SDS011;17111;52.130;5.028;2023-02-20T11:14:33;15.57;;;3.72;;
30301;SDS011;17111;52.130;5.028;2023-02-20T11:17:09;10.15;;;4.10;;
30301;SDS011;17111;52.130;5.028;2023-02-20T11:19:41;13.60;;;3.63;;
30301;SDS011;17111;52.130;5.028;2023-02-20T11:22:09;13.32;;;4.25;;
30301;SDS011;17111;52.130;5.028;2023-02-20T11:24:39;11.43;;;4.22;;
30301;SDS011;17111;52.130;5.028;2023-02-20T11:29:38;9.27;;;3.70;;
30301;SDS011;17111;52.130;5.028;2023-02-20T11:34:45;14.73;;;3.70;;
30301;SDS011;17111;52.130;5.028;2023-02-20T11:37:12;14.18;;;3.97;;
30301;SDS011;17111;52.130;5.028;2023-02-20T11:39:44;10.10;;;3.70;;
30301;SDS011;17111;52.130;5.028;2023-02-20T11:42:16;10.82;;;4.13;;
30301;SDS011;17111;52.130;5.028;2023-02-20T11:44:45;7.47;;;2.57;;
30301;SDS011;17111;52.130;5.028;2023-02-20T11:56:05;7.45;;;3.20;;
30301;SDS011;17111;52.130;5.028;2023-02-20T11:58:35;9.57;;;3.00;;
30301;SDS011;17111;52.130;5.028;2023-02-20T12:01:02;8.13;;;3.00;;
30301;SDS011;17111;52.130;5.028;2023-02-20T12:03:30;7.00;;;2.90;;
30301;SDS011;17111;52.130;5.028;2023-02-20T12:06:00;7.97;;;3.05;;
30301;SDS011;17111;52.130;5.028;2023-02-20T12:08:54;7.40;;;2.55;;
30301;SDS011;17111;52.130;5.028;2023-02-20T12:11:25;9.88;;;3.28;;
30301;SDS011;17111;52.130;5.028;2023-02-20T12:13:53;6.30;;;2.60;;
30301;SDS011;17111;52.130;5.028;2023-02-20T12:18:55;8.77;;;2.60;;
30301;SDS011;17111;52.130;5.028;2023-02-20T12:21:35;6.20;;;2.40;;
30301;SDS011;17111;52.130;5.028;2023-02-20T12:27:45;5.23;;;2.70;;
30301;SDS011;17111;52.130;5.028;2023-02-20T12:30:22;5.20;;;2.35;;
30301;SDS011;17111;52.130;5.028;2023-02-20T12:33:41;7.60;;;2.70;;
30301;SDS011;17111;52.130;5.028;2023-02-20T12:35:58;6.95;;;2.78;;
30301;SDS011;17111;52.130;5.028;2023-02-20T12:38:57;6.68;;;2.63;;
30301;SDS011;17111;52.130;5.028;2023-02-20T12:41:37;6.28;;;2.38;;
30301;SDS011;17111;52.130;5.028;2023-02-20T12:47:08;4.65;;;2.10;;
30301;SDS011;17111;52.130;5.028;2023-02-20T12:52:53;5.65;;;2.05;;
30301;SDS011;17111;52.130;5.028;2023-02-20T13:01:00;4.38;;;2.05;;
30301;SDS011;17111;52.130;5.028;2023-02-20T13:06:06;4.32;;;2.40;;
30301;SDS011;17111;52.130;5.028;2023-02-20T13:11:25;4.38;;;2.25;;
30301;SDS011;17111;52.130;5.028;2023-02-20T13:16:40;5.55;;;1.80;;
30301;SDS011;17111;52.130;5.028;2023-02-20T13:19:22;5.03;;;2.10;;
30301;SDS011;17111;52.130;5.028;2023-02-20T13:22:11;2.80;;;1.60;;
30301;SDS011;17111;52.130;5.028;2023-02-20T13:24:38;6.10;;;2.08;;
30301;SDS011;17111;52.130;5.028;2023-02-20T13:27:07;3.70;;;2.22;;
30301;SDS011;17111;52.130;5.028;2023-02-20T13:30:19;5.03;;;2.08;;
30301;SDS011;17111;52.130;5.028;2023-02-20T13:32:28;3.10;;;1.70;;
30301;SDS011;17111;52.130;5.028;2023-02-20T13:38:16;6.38;;;1.95;;
30301;SDS011;17111;52.130;5.028;2023-02-20T13:45:48;4.88;;;2.00;;
30301;SDS011;17111;52.130;5.028;2023-02-20T13:56:23;3.47;;;1.63;;
30301;SDS011;17111;52.130;5.028;2023-02-20T13:59:08;3.85;;;1.85;;
30301;SDS011;17111;52.130;5.028;2023-02-20T14:10:12;6.35;;;2.10;;
30301;SDS011;17111;52.130;5.028;2023-02-20T14:12:43;3.17;;;1.40;;
30301;SDS011;17111;52.130;5.028;2023-02-20T14:15:11;2.92;;;1.33;;
30301;SDS011;17111;52.130;5.028;2023-02-20T14:17:40;3.97;;;2.00;;
30301;SDS011;17111;52.130;5.028;2023-02-20T14:20:14;4.75;;;1.90;;
30301;SDS011;17111;52.130;5.028;2023-02-20T14:22:45;2.97;;;1.50;;
30301;SDS011;17111;52.130;5.028;2023-02-20T14:27:44;4.43;;;1.58;;
30301;SDS011;17111;52.130;5.028;2023-02-20T14:30:18;4.32;;;1.50;;
30301;SDS011;17111;52.130;5.028;2023-02-20T14:32:49;4.13;;;1.52;;
30301;SDS011;17111;52.130;5.028;2023-02-20T14:40:44;4.38;;;1.73;;
30301;SDS011;17111;52.130;5.028;2023-02-20T14:43:19;4.65;;;1.80;;
30301;SDS011;17111;52.130;5.028;2023-02-20T14:45:57;2.63;;;1.55;;
30301;SDS011;17111;52.130;5.028;2023-02-20T14:48:33;4.97;;;1.67;;
30301;SDS011;17111;52.130;5.028;2023-02-20T14:53:36;4.88;;;1.90;;
30301;SDS011;17111;52.130;5.028;2023-02-20T14:56:13;2.75;;;1.35;;
30301;SDS011;17111;52.130;5.028;2023-02-20T14:58:43;4.07;;;1.17;;
30301;SDS011;17111;52.130;5.028;2023-02-20T15:04:26;2.33;;;1.70;;
30301;SDS011;17111;52.130;5.028;2023-02-20T15:06:46;2.45;;;1.50;;
30301;SDS011;17111;52.130;5.028;2023-02-20T15:09:14;3.95;;;1.85;;
30301;SDS011;17111;52.130;5.028;2023-02-20T15:14:21;2.60;;;1.40;;
30301;SDS011;17111;52.130;5.028;2023-02-20T15:17:05;3.28;;;1.50;;
30301;SDS011;17111;52.130;5.028;2023-02-20T15:19:49;3.50;;;1.40;;
30301;SDS011;17111;52.130;5.028;2023-02-20T15:22:24;5.10;;;1.30;;
30301;SDS011;17111;52.130;5.028;2023-02-20T15:24:51;4.45;;;1.35;;
30301;SDS011;17111;52.130;5.028;2023-02-20T15:27:19;4.43;;;1.30;;
30301;SDS011;17111;52.130;5.028;2023-02-20T15:32:39;7.05;;;1.30;;
30301;SDS011;17111;52.130;5.028;2023-02-20T15:35:14;5.55;;;1.25;;
30301;SDS011;17111;52.130;5.028;2023-02-20T15:37:43;5.18;;;1.40;;
30301;SDS011;17111;52.130;5.028;2023-02-20T15:42:47;5.07;;;1.13;;
30301;SDS011;17111;52.130;5.028;2023-02-20T15:45:15;2.75;;;1.13;;
30301;SDS011;17111;52.130;5.028;2023-02-20T15:47:41;5.43;;;1.35;;
30301;SDS011;17111;52.130;5.028;2023-02-20T15:50:08;2.95;;;1.23;;
30301;SDS011;17111;52.130;5.028;2023-02-20T15:52:35;3.15;;;1.35;;
30301;SDS011;17111;52.130;5.028;2023-02-20T15:55:01;6.35;;;1.88;;
30301;SDS011;17111;52.130;5.028;2023-02-20T15:57:29;4.63;;;1.20;;
30301;SDS011;17111;52.130;5.028;2023-02-20T15:59:55;4.15;;;1.60;;
30301;SDS011;17111;52.130;5.028;2023-02-20T16:02:23;4.97;;;1.60;;
30301;SDS011;17111;52.130;5.028;2023-02-20T16:04:50;3.08;;;1.23;;
30301;SDS011;17111;52.130;5.028;2023-02-20T16:07:18;5.47;;;1.20;;
30301;SDS011;17111;52.130;5.028;2023-02-20T16:09:45;4.88;;;1.02;;
30301;SDS011;17111;52.130;5.028;2023-02-20T16:12:14;2.92;;;1.33;;
30301;SDS011;17111;52.130;5.028;2023-02-20T16:14:43;3.05;;;1.52;;
30301;SDS011;17111;52.130;5.028;2023-02-20T16:17:14;7.75;;;2.50;;
30301;SDS011;17111;52.130;5.028;2023-02-20T16:19:47;6.25;;;3.00;;
30301;SDS011;17111;52.130;5.028;2023-02-20T16:22:14;7.60;;;3.38;;
30301;SDS011;17111;52.130;5.028;2023-02-20T16:24:40;9.70;;;3.85;;
30301;SDS011;17111;52.130;5.028;2023-02-20T16:27:31;16.63;;;4.95;;
30301;SDS011;17111;52.130;5.028;2023-02-20T16:29:56;17.73;;;7.18;;
30301;SDS011;17111;52.130;5.028;2023-02-20T16:32:24;13.40;;;7.22;;
30301;SDS011;17111;52.130;5.028;2023-02-20T16:34:52;13.93;;;7.20;;
30301;SDS011;17111;52.130;5.028;2023-02-20T16:37:21;13.20;;;6.80;;
30301;SDS011;17111;52.130;5.028;2023-02-20T16:39:48;14.02;;;7.63;;
30301;SDS011;17111;52.130;5.028;2023-02-20T16:44:53;15.95;;;7.18;;
30301;SDS011;17111;52.130;5.028;2023-02-20T16:47:27;13.23;;;7.63;;
30301;SDS011;17111;52.130;5.028;2023-02-20T16:49:56;16.15;;;8.35;;
30301;SDS011;17111;52.130;5.028;2023-02-20T16:52:27;22.73;;;11.90;;
30301;SDS011;17111;52.130;5.028;2023-02-20T16:55:06;28.50;;;15.55;;
30301;SDS011;17111;52.130;5.028;2023-02-20T16:57:50;35.50;;;17.92;;
30301;SDS011;17111;52.130;5.028;2023-02-20T17:00:18;33.63;;;17.70;;
30301;SDS011;17111;52.130;5.028;2023-02-20T17:02:53;33.88;;;18.45;;
30301;SDS011;17111;52.130;5.028;2023-02-20T17:05:21;36.45;;;18.77;;
30301;SDS011;17111;52.130;5.028;2023-02-20T17:07:56;40.55;;;19.20;;